createdAt,value
2019-01-20T00:00:46.032Z,75.30
2019-01-20T00:03:12.097Z,75.30
2019-01-20T00:05:38.148Z,75.30
2019-01-20T00:08:04.792Z,75.40
2019-01-20T00:10:30.848Z,75.50
2019-01-20T00:12:57.168Z,75.50
2019-01-20T00:15:23.441Z,75.20
2019-01-20T00:17:49.497Z,75.60
2019-01-20T00:20:15.634Z,75.50
2019-01-20T00:22:41.883Z,75.30
2019-01-20T00:25:09.260Z,75.40
2019-01-20T00:27:35.404Z,75.50
2019-01-20T00:30:03.152Z,75.20
2019-01-20T00:32:29.204Z,75.20
2019-01-20T00:34:55.283Z,75.40
2019-01-20T00:37:21.329Z,75.10
2019-01-20T00:39:47.372Z,75.30
2019-01-20T00:42:13.423Z,74.80
2019-01-20T00:44:39.784Z,75.10
2019-01-20T00:47:06.104Z,75.00
2019-01-20T00:49:32.162Z,74.70
2019-01-20T00:51:58.200Z,74.70
2019-01-20T00:54:25.331Z,74.50
2019-01-20T00:56:51.381Z,74.70
2019-01-20T00:59:17.424Z,74.70
2019-01-20T01:01:43.752Z,74.40
2019-01-20T01:04:09.999Z,74.90
2019-01-20T01:06:36.043Z,74.20
2019-01-20T01:09:05.089Z,75.00
2019-01-20T01:11:31.724Z,74.20
2019-01-20T01:13:58.218Z,73.80
2019-01-20T01:16:24.268Z,73.70
2019-01-20T01:18:50.322Z,73.70
2019-01-20T01:21:16.378Z,73.70
2019-01-20T01:23:42.694Z,73.60
2019-01-20T01:26:10.191Z,73.60
2019-01-20T01:28:36.251Z,73.70
2019-01-20T01:31:02.411Z,73.70
2019-01-20T01:33:28.452Z,73.60
2019-01-20T01:35:54.496Z,73.70
2019-01-20T01:38:20.555Z,73.50
2019-01-20T01:40:46.589Z,73.60
2019-01-20T01:43:12.627Z,73.40
2019-01-20T01:45:38.947Z,73.70
2019-01-20T01:48:04.999Z,73.80
2019-01-20T01:50:31.047Z,74.00
2019-01-20T01:52:57.108Z,73.70
2019-01-20T01:55:23.160Z,73.50
2019-01-20T01:57:49.208Z,73.60
2019-01-20T02:00:20.655Z,73.80
2019-01-20T02:02:46.987Z,73.90
2019-01-20T02:05:13.038Z,73.70
2019-01-20T02:07:39.187Z,73.90
2019-01-20T02:10:09.037Z,74.10
2019-01-20T02:12:35.479Z,74.40
2019-01-20T02:15:01.540Z,74.50
2019-01-20T02:17:27.787Z,74.50
2019-01-20T02:19:53.825Z,74.50
2019-01-20T02:22:20.149Z,74.60
2019-01-20T02:24:46.291Z,74.90
2019-01-20T02:27:12.351Z,75.00
2019-01-20T02:29:38.400Z,74.70
2019-01-20T02:32:04.540Z,74.60
2019-01-20T02:34:30.881Z,74.40
2019-01-20T02:36:57.212Z,74.60
2019-01-20T02:39:23.268Z,74.30
2019-01-20T02:41:55.079Z,75.00
2019-01-20T02:44:17.263Z,74.10
2019-01-20T02:46:43.304Z,74.00
2019-01-20T02:49:09.688Z,74.60
2019-01-20T02:51:35.733Z,73.90
2019-01-20T02:54:01.777Z,74.10
2019-01-20T02:56:27.811Z,74.20
2019-01-20T02:58:53.879Z,74.00
2019-01-20T03:01:19.923Z,74.00
2019-01-20T03:03:45.963Z,74.00
2019-01-20T03:06:12.024Z,73.70
2019-01-20T03:08:38.378Z,73.50
2019-01-20T03:11:04.423Z,73.40
2019-01-20T03:13:30.484Z,73.40
2019-01-20T03:15:56.528Z,73.10
2019-01-20T03:18:22.571Z,73.10
2019-01-20T03:20:48.631Z,73.00
2019-01-20T03:23:14.678Z,73.10
2019-01-20T03:25:40.743Z,72.90
2019-01-20T03:28:06.879Z,72.80
2019-01-20T03:30:32.928Z,72.90
2019-01-20T03:32:59.320Z,72.60
2019-01-20T03:35:25.468Z,72.50
2019-01-20T03:37:51.507Z,73.30
2019-01-20T03:40:18.788Z,72.40
2019-01-20T03:42:44.832Z,72.50
2019-01-20T03:45:13.483Z,72.40
2019-01-20T03:47:39.544Z,72.50
2019-01-20T03:50:08.290Z,72.50
2019-01-20T03:52:34.331Z,72.60
2019-01-20T03:55:00.645Z,72.60
2019-01-20T03:57:26.781Z,72.60
2019-01-20T03:59:53.147Z,72.70
2019-01-20T04:02:21.130Z,72.70
2019-01-20T04:04:47.345Z,73.30
2019-01-20T04:07:13.676Z,72.90
2019-01-20T04:09:39.732Z,72.90
2019-01-20T04:12:05.780Z,72.90
2019-01-20T04:14:31.849Z,73.00
2019-01-20T04:16:57.985Z,72.90
2019-01-20T04:19:24.021Z,73.60
2019-01-20T04:21:50.087Z,73.30
2019-01-20T04:24:16.130Z,73.20
2019-01-20T04:26:42.163Z,73.30
2019-01-20T04:29:08.225Z,73.30
2019-01-20T04:31:34.264Z,73.50
2019-01-20T04:34:00.330Z,73.80
2019-01-20T04:36:26.399Z,73.80
2019-01-20T04:38:52.444Z,73.90
2019-01-20T04:41:18.493Z,73.80
2019-01-20T04:43:44.547Z,73.90
2019-01-20T04:46:10.609Z,73.90
2019-01-20T04:48:36.757Z,73.80
2019-01-20T04:51:02.820Z,73.40
2019-01-20T04:53:29.273Z,73.40
2019-01-20T04:55:55.340Z,73.20
2019-01-20T04:58:21.711Z,73.10
2019-01-20T05:00:47.751Z,72.80
2019-01-20T05:03:13.824Z,72.90
2019-01-20T05:05:39.863Z,72.90
2019-01-20T05:08:05.914Z,72.80
2019-01-20T05:10:31.982Z,72.60
2019-01-20T05:12:58.019Z,72.70
2019-01-20T05:15:24.076Z,72.70
2019-01-20T05:17:50.424Z,72.80
2019-01-20T05:20:17.212Z,72.80
2019-01-20T05:22:43.255Z,73.10
2019-01-20T05:25:10.404Z,73.10
2019-01-20T05:27:36.779Z,73.20
2019-01-20T05:30:06.613Z,73.10
2019-01-20T05:32:33.014Z,72.90
2019-01-20T05:34:59.084Z,72.80
2019-01-20T05:37:25.468Z,73.00
2019-01-20T05:39:51.711Z,72.80
2019-01-20T05:42:17.768Z,73.30
2019-01-20T05:44:43.813Z,72.60
2019-01-20T05:47:09.858Z,72.70
2019-01-20T05:49:35.910Z,72.70
2019-01-20T05:52:02.326Z,72.70
2019-01-20T05:54:28.365Z,72.50
2019-01-20T05:56:54.402Z,72.60
2019-01-20T05:59:20.461Z,72.80
2019-01-20T06:01:46.509Z,72.30
2019-01-20T06:04:12.543Z,72.20
2019-01-20T06:06:38.603Z,72.10
2019-01-20T06:09:05.969Z,72.00
2019-01-20T06:11:32.023Z,71.90
2019-01-20T06:13:58.083Z,71.80
2019-01-20T06:16:24.136Z,71.70
2019-01-20T06:18:50.175Z,71.60
2019-01-20T06:21:16.244Z,71.40
2019-01-20T06:23:42.333Z,71.30
2019-01-20T06:26:08.398Z,71.20
2019-01-20T06:28:34.435Z,71.00
2019-01-20T06:31:00.523Z,70.90
2019-01-20T06:33:26.583Z,71.00
2019-01-20T06:35:52.617Z,71.10
2019-01-20T06:38:18.654Z,71.00
2019-01-20T06:40:44.716Z,71.20
2019-01-20T06:43:10.775Z,71.30
2019-01-20T06:45:36.859Z,71.40
2019-01-20T06:48:03.215Z,71.60
2019-01-20T06:50:29.254Z,71.50
2019-01-20T06:52:55.351Z,72.00
2019-01-20T06:55:21.894Z,71.70
2019-01-20T06:57:48.156Z,71.60
2019-01-20T07:00:17.107Z,71.70
2019-01-20T07:02:43.159Z,71.70
2019-01-20T07:05:09.341Z,72.40
2019-01-20T07:07:35.691Z,71.60
2019-01-20T07:10:04.741Z,71.40
2019-01-20T07:12:31.122Z,71.90
2019-01-20T07:14:57.163Z,71.10
2019-01-20T07:17:23.223Z,71.00
2019-01-20T07:19:49.296Z,70.60
2019-01-20T07:22:15.349Z,70.40
2019-01-20T07:24:41.741Z,70.40
2019-01-20T07:27:07.806Z,70.40
2019-01-20T07:29:33.876Z,70.30
2019-01-20T07:31:59.914Z,70.30
2019-01-20T07:34:27.414Z,70.30
2019-01-20T07:36:53.712Z,70.00
2019-01-20T07:39:19.863Z,70.00
2019-01-20T07:41:45.925Z,70.00
2019-01-20T07:44:11.959Z,69.60
2019-01-20T07:46:38.003Z,69.50
2019-01-20T07:49:04.114Z,69.50
2019-01-20T07:51:30.156Z,69.50
2019-01-20T07:53:56.198Z,69.40
2019-01-20T07:56:22.300Z,69.50
2019-01-20T07:58:48.426Z,69.60
2019-01-20T08:01:14.488Z,69.60
2019-01-20T08:03:40.587Z,69.60
2019-01-20T08:06:06.639Z,69.70
2019-01-20T08:08:32.784Z,69.90
2019-01-20T08:10:58.845Z,70.00
2019-01-20T08:13:24.931Z,70.00
2019-01-20T08:15:51.020Z,70.20
2019-01-20T08:18:17.078Z,70.30
2019-01-20T08:20:43.124Z,70.60
2019-01-20T08:23:09.176Z,70.80
2019-01-20T08:25:35.247Z,71.20
2019-01-20T08:28:01.290Z,71.80
2019-01-20T08:30:27.432Z,72.30
2019-01-20T08:32:54.509Z,72.70
2019-01-20T08:35:20.833Z,74.00
2019-01-20T08:37:46.985Z,73.70
2019-01-20T08:40:15.753Z,73.90
2019-01-20T08:42:41.800Z,74.10
2019-01-20T08:45:26.295Z,74.30
2019-01-20T08:47:54.541Z,74.50
2019-01-20T08:50:20.575Z,74.60
2019-01-20T08:52:46.636Z,74.90
2019-01-20T08:55:12.778Z,75.20
2019-01-20T08:57:38.865Z,75.40
2019-01-20T09:00:08.793Z,75.60
2019-01-20T09:02:35.155Z,75.80
2019-01-20T09:05:01.571Z,76.00
2019-01-20T09:07:27.632Z,76.10
2019-01-20T09:09:53.668Z,76.00
2019-01-20T09:12:19.727Z,76.40
2019-01-20T09:14:45.959Z,76.40
2019-01-20T09:17:12.027Z,76.70
2019-01-20T09:19:38.408Z,76.80
2019-01-20T09:22:04.851Z,76.90
2019-01-20T09:24:30.943Z,76.90
2019-01-20T09:26:57.057Z,76.90
2019-01-20T09:29:23.099Z,76.90
2019-01-20T09:31:49.168Z,77.20
2019-01-20T09:34:15.223Z,77.40
2019-01-20T09:36:41.707Z,77.50
2019-01-20T09:39:10.463Z,77.60
2019-01-20T09:41:36.551Z,77.90
2019-01-20T09:44:03.032Z,78.10
2019-01-20T09:46:29.162Z,78.60
2019-01-20T09:48:55.244Z,78.90
2019-01-20T09:51:21.284Z,78.50
2019-01-20T09:53:47.347Z,78.80
2019-01-20T09:56:13.415Z,79.00
2019-01-20T09:58:39.468Z,78.90
2019-01-20T10:01:05.539Z,78.70
2019-01-20T10:03:31.591Z,78.90
2019-01-20T10:05:57.652Z,79.40
2019-01-20T10:08:24.014Z,79.40
2019-01-20T10:10:50.420Z,79.20
2019-01-20T10:13:16.767Z,78.80
2019-01-20T10:15:43.185Z,78.50
2019-01-20T10:18:09.248Z,79.00
2019-01-20T10:20:35.315Z,78.90
2019-01-20T10:23:01.355Z,78.80
2019-01-20T10:25:27.423Z,79.00
2019-01-20T10:27:53.460Z,78.90
2019-01-20T10:30:22.927Z,78.00
2019-01-20T10:32:48.991Z,78.60
2019-01-20T10:35:15.338Z,77.80
2019-01-20T10:37:41.689Z,77.90
2019-01-20T10:40:07.959Z,78.30
2019-01-20T10:42:34.973Z,78.30
2019-01-20T10:45:01.245Z,78.10
2019-01-20T10:47:27.727Z,77.40
2019-01-20T10:49:53.767Z,77.20
2019-01-20T10:52:20.090Z,77.30
2019-01-20T10:54:46.271Z,77.00
2019-01-20T10:57:12.643Z,77.30
2019-01-20T10:59:39.692Z,76.90
2019-01-20T11:02:05.761Z,77.00
2019-01-20T11:04:31.804Z,76.60
2019-01-20T11:06:57.890Z,76.80
2019-01-20T11:09:24.008Z,76.60
2019-01-20T11:11:50.064Z,76.40
2019-01-20T11:14:16.112Z,76.00
2019-01-20T11:16:42.152Z,76.50
2019-01-20T11:19:08.427Z,75.70
2019-01-20T11:21:34.481Z,75.90
2019-01-20T11:24:00.747Z,76.40
2019-01-20T11:26:26.813Z,76.20
2019-01-20T11:28:52.864Z,77.70
2019-01-20T11:31:18.912Z,76.70
2019-01-20T11:33:44.987Z,76.40
2019-01-20T11:36:11.363Z,74.60
2019-01-20T11:38:37.407Z,74.60
2019-01-20T11:41:03.818Z,75.70
2019-01-20T11:43:29.859Z,74.70
2019-01-20T11:45:55.904Z,76.70
2019-01-20T11:48:21.963Z,77.20
2019-01-20T11:50:48.322Z,77.20
2019-01-20T11:53:14.359Z,76.30
2019-01-20T11:55:40.450Z,75.80
2019-01-20T11:58:06.492Z,76.10
2019-01-20T12:00:34.044Z,76.30
2019-01-20T12:03:00.319Z,75.80
2019-01-20T12:05:26.861Z,76.80
2019-01-20T12:07:54.256Z,75.70
2019-01-20T12:10:20.580Z,76.20
2019-01-20T12:12:48.619Z,76.90
2019-01-20T12:15:15.356Z,76.40
2019-01-20T12:17:41.419Z,76.40
2019-01-20T12:20:10.563Z,76.10
2019-01-20T12:22:36.720Z,76.10
2019-01-20T12:25:06.295Z,75.70
2019-01-20T12:27:32.343Z,75.00
2019-01-20T12:29:58.388Z,75.20
2019-01-20T12:32:24.444Z,75.60
2019-01-20T12:34:50.490Z,75.50
2019-01-20T12:37:16.530Z,75.60
2019-01-20T12:39:42.608Z,74.80
2019-01-20T12:42:08.993Z,75.60
2019-01-20T12:44:35.032Z,75.30
2019-01-20T12:47:01.081Z,76.10
2019-01-20T12:49:27.118Z,75.90
2019-01-20T12:51:53.168Z,75.60
2019-01-20T12:54:19.664Z,76.10
2019-01-20T12:56:47.300Z,76.70
2019-01-20T12:59:13.678Z,76.50
2019-01-20T13:01:39.720Z,76.10
2019-01-20T13:04:05.784Z,76.70
2019-01-20T13:06:32.137Z,76.90
2019-01-20T13:08:58.205Z,77.50
2019-01-20T13:11:24.249Z,78.00
2019-01-20T13:13:50.307Z,76.90
2019-01-20T13:16:16.363Z,76.60
2019-01-20T13:18:42.403Z,76.40
2019-01-20T13:21:08.481Z,76.40
2019-01-20T13:23:34.519Z,77.00
2019-01-20T13:26:00.563Z,76.10
2019-01-20T13:28:26.891Z,75.50
2019-01-20T13:30:53.288Z,75.00
2019-01-20T13:33:19.335Z,75.70
2019-01-20T13:35:45.395Z,76.30
2019-01-20T13:38:11.446Z,76.40
2019-01-20T13:40:46.905Z,77.70
2019-01-20T13:43:12.960Z,77.00
2019-01-20T13:45:39.043Z,76.60
2019-01-20T13:48:05.241Z,75.90
2019-01-20T13:50:31.270Z,76.10
2019-01-20T13:52:57.357Z,77.30
2019-01-20T13:55:23.423Z,76.70
2019-01-20T13:57:49.468Z,76.90
2019-01-20T14:00:18.454Z,77.70
2019-01-20T14:02:44.512Z,77.00
2019-01-20T14:05:10.559Z,78.20
2019-01-20T14:07:36.604Z,77.50
2019-01-20T14:10:06.463Z,77.10
2019-01-20T14:12:32.775Z,76.40
2019-01-20T14:14:58.847Z,76.80
2019-01-20T14:17:24.885Z,76.50
2019-01-20T14:19:50.930Z,76.80
2019-01-20T14:22:16.982Z,76.40
2019-01-20T14:24:43.031Z,75.90
2019-01-20T14:27:09.073Z,76.60
2019-01-20T14:29:35.143Z,76.50
2019-01-20T14:32:01.190Z,76.40
2019-01-20T14:34:27.355Z,76.80
2019-01-20T14:36:53.407Z,76.50
2019-01-20T14:39:19.743Z,76.80
2019-01-20T14:41:45.853Z,76.00
2019-01-20T14:44:11.904Z,74.90
2019-01-20T14:46:37.951Z,74.30
2019-01-20T14:49:04.347Z,74.80
2019-01-20T14:51:30.406Z,74.10
2019-01-20T14:53:56.532Z,74.50
2019-01-20T14:56:22.592Z,76.60
2019-01-20T14:58:48.636Z,76.50
2019-01-20T15:01:14.675Z,76.40
2019-01-20T15:03:40.753Z,76.00
2019-01-20T15:06:06.791Z,76.00
2019-01-20T15:08:32.827Z,76.00
2019-01-20T15:10:58.896Z,75.30
2019-01-20T15:13:24.932Z,75.90
2019-01-20T15:15:51.104Z,75.80
2019-01-20T15:18:17.175Z,76.10
2019-01-20T15:20:43.321Z,76.40
2019-01-20T15:23:09.713Z,75.70
2019-01-20T15:25:35.876Z,75.80
2019-01-20T15:28:02.021Z,75.70
2019-01-20T15:30:30.060Z,75.50
2019-01-20T15:32:57.027Z,75.00
2019-01-20T15:35:23.181Z,75.00
2019-01-20T15:37:49.225Z,74.10
2019-01-20T15:40:18.093Z,73.40
2019-01-20T15:42:44.433Z,73.70
2019-01-20T15:45:16.506Z,73.40
2019-01-20T15:47:42.869Z,73.40
2019-01-20T15:50:12.536Z,72.90
2019-01-20T15:52:38.576Z,72.90
2019-01-20T15:55:07.430Z,72.70
2019-01-20T15:57:33.492Z,72.60
2019-01-20T15:59:59.633Z,72.10
2019-01-20T16:02:25.738Z,72.00
2019-01-20T16:04:52.792Z,71.80
2019-01-20T16:07:18.939Z,71.60
2019-01-20T16:09:45.000Z,71.70
2019-01-20T16:12:11.216Z,71.60
2019-01-20T16:14:37.609Z,71.40
2019-01-20T16:17:03.956Z,71.30
2019-01-20T16:19:30.143Z,71.20
2019-01-20T16:21:56.188Z,71.20
2019-01-20T16:24:22.593Z,71.50
2019-01-20T16:26:48.922Z,71.20
2019-01-20T16:29:14.963Z,71.10
2019-01-20T16:31:41.031Z,71.30
2019-01-20T16:34:07.086Z,71.10
2019-01-20T16:36:33.152Z,70.80
2019-01-20T16:38:59.216Z,70.90
2019-01-20T16:41:25.392Z,71.10
2019-01-20T16:43:51.446Z,71.10
2019-01-20T16:46:17.487Z,70.90
2019-01-20T16:48:43.558Z,71.10
2019-01-20T16:51:09.706Z,71.90
2019-01-20T16:53:35.755Z,72.60
2019-01-20T16:56:01.843Z,73.30
2019-01-20T16:58:27.893Z,73.80
2019-01-20T17:00:54.233Z,73.90
2019-01-20T17:03:20.288Z,74.30
2019-01-20T17:05:46.707Z,74.30
2019-01-20T17:08:12.751Z,74.10
2019-01-20T17:10:38.891Z,74.50
2019-01-20T17:13:05.859Z,74.90
2019-01-20T17:15:39.863Z,75.20
2019-01-20T17:18:06.775Z,75.60
2019-01-20T17:20:32.993Z,75.50
2019-01-20T17:22:59.417Z,75.00
2019-01-20T17:25:25.468Z,74.70
2019-01-20T17:27:51.519Z,74.50
2019-01-20T17:30:24.174Z,74.30
2019-01-20T17:32:50.775Z,74.50
2019-01-20T17:35:16.823Z,75.20
2019-01-20T17:37:42.868Z,75.20
2019-01-20T17:40:17.695Z,75.20
2019-01-20T17:42:43.789Z,76.20
2019-01-20T17:45:19.434Z,76.30
2019-01-20T17:47:45.472Z,75.90
2019-01-20T17:50:15.288Z,75.60
2019-01-20T17:52:41.456Z,75.30
2019-01-20T17:55:08.001Z,74.90
2019-01-20T17:57:34.091Z,74.90
2019-01-20T18:00:00.185Z,74.90
2019-01-20T18:02:26.600Z,74.60
2019-01-20T18:04:52.652Z,74.50
2019-01-20T18:07:18.691Z,75.00
2019-01-20T18:09:44.744Z,74.20
2019-01-20T18:12:10.795Z,74.10
2019-01-20T18:14:36.867Z,74.20
2019-01-20T18:17:03.115Z,75.00
2019-01-20T18:19:29.164Z,74.20
2019-01-20T18:21:55.212Z,74.10
2019-01-20T18:24:21.331Z,74.40
2019-01-20T18:26:47.367Z,74.80
2019-01-20T18:29:13.409Z,74.50
2019-01-20T18:31:39.523Z,74.30
2019-01-20T18:34:05.553Z,74.00
2019-01-20T18:36:31.588Z,74.00
2019-01-20T18:38:57.648Z,73.80
2019-01-20T18:41:23.696Z,73.50
2019-01-20T18:43:49.740Z,73.30
2019-01-20T18:46:15.821Z,72.90
2019-01-20T18:48:42.268Z,72.60
2019-01-20T18:51:08.596Z,72.50
2019-01-20T18:53:34.655Z,72.30
2019-01-20T18:56:01.051Z,73.20
2019-01-20T18:58:27.096Z,72.40
2019-01-20T19:00:53.517Z,72.80
2019-01-20T19:03:20.028Z,72.80
2019-01-20T19:05:46.140Z,73.10
2019-01-20T19:08:12.321Z,72.60
2019-01-20T19:10:38.384Z,72.60
2019-01-20T19:13:04.620Z,72.40
2019-01-20T19:15:30.685Z,72.40
2019-01-20T19:17:56.728Z,72.40
2019-01-20T19:20:24.173Z,72.30
2019-01-20T19:22:52.435Z,72.10
2019-01-20T19:25:18.695Z,72.30
2019-01-20T19:27:45.035Z,72.40
2019-01-20T19:30:14.518Z,72.50
2019-01-20T19:32:40.660Z,72.50
2019-01-20T19:35:08.083Z,72.30
2019-01-20T19:37:34.143Z,72.90
2019-01-20T19:40:00.254Z,73.60
2019-01-20T19:42:26.339Z,74.50
2019-01-20T19:44:52.780Z,74.60
2019-01-20T19:47:18.829Z,74.30
2019-01-20T19:49:44.876Z,74.90
2019-01-20T19:52:10.935Z,73.70
2019-01-20T19:54:37.007Z,73.50
2019-01-20T19:57:03.301Z,73.30
2019-01-20T19:59:29.458Z,73.20
2019-01-20T20:01:55.499Z,73.00
2019-01-20T20:04:21.545Z,72.90
2019-01-20T20:06:47.642Z,72.80
2019-01-20T20:09:14.235Z,73.50
2019-01-20T20:11:40.284Z,72.80
2019-01-20T20:14:06.339Z,72.60
2019-01-20T20:16:32.376Z,72.30
2019-01-20T20:18:58.433Z,72.00
2019-01-20T20:21:24.564Z,72.00
2019-01-20T20:23:50.626Z,71.80
2019-01-20T20:26:16.679Z,71.70
2019-01-20T20:28:42.719Z,71.60
2019-01-20T20:31:08.771Z,71.30
2019-01-20T20:33:34.848Z,71.20
2019-01-20T20:36:00.971Z,71.10
2019-01-20T20:38:27.031Z,71.10
2019-01-20T20:40:53.075Z,71.10
2019-01-20T20:43:19.129Z,71.10
2019-01-20T20:45:45.499Z,71.00
2019-01-20T20:48:11.539Z,71.00
2019-01-20T20:50:37.598Z,71.00
2019-01-20T20:53:03.638Z,71.00
2019-01-20T20:55:29.792Z,71.20
2019-01-20T20:57:55.844Z,71.30
2019-01-20T21:00:24.501Z,71.40
2019-01-20T21:02:50.531Z,71.60
2019-01-20T21:05:16.688Z,71.40
2019-01-20T21:07:43.041Z,71.60
2019-01-20T21:10:12.883Z,71.70
2019-01-20T21:12:45.511Z,72.00
2019-01-20T21:15:14.362Z,71.00
2019-01-20T21:17:47.718Z,72.50
2019-01-20T21:20:14.927Z,72.70
2019-01-20T21:22:40.963Z,72.90
2019-01-20T21:25:09.315Z,72.70
2019-01-20T21:27:35.374Z,72.70
2019-01-20T21:30:01.816Z,73.50
2019-01-20T21:32:27.864Z,72.80
2019-01-20T21:34:54.168Z,73.10
2019-01-20T21:37:20.211Z,73.20
2019-01-20T21:39:46.251Z,73.60
2019-01-20T21:42:12.438Z,73.60
2019-01-20T21:44:38.490Z,73.50
2019-01-20T21:47:04.523Z,74.10
2019-01-20T21:49:30.580Z,73.20
2019-01-20T21:51:56.624Z,72.90
2019-01-20T21:54:22.776Z,72.70
2019-01-20T21:56:48.843Z,72.50
2019-01-20T21:59:14.899Z,72.30
2019-01-20T22:01:40.943Z,72.30
2019-01-20T22:04:06.984Z,72.30
2019-01-20T22:06:34.964Z,72.10
2019-01-20T22:09:01.027Z,71.90
2019-01-20T22:11:27.331Z,71.60
2019-01-20T22:13:53.438Z,72.20
2019-01-20T22:16:19.485Z,71.90
2019-01-20T22:18:45.564Z,71.20
2019-01-20T22:21:11.608Z,72.20
2019-01-20T22:23:37.897Z,71.30
2019-01-20T22:26:04.160Z,71.10
2019-01-20T22:28:30.221Z,71.10
2019-01-20T22:30:56.255Z,71.00
2019-01-20T22:33:22.296Z,71.00
2019-01-20T22:35:48.362Z,70.90
2019-01-20T22:38:14.404Z,70.70
2019-01-20T22:40:40.436Z,70.50
2019-01-20T22:43:06.499Z,70.50
2019-01-20T22:45:32.547Z,70.40
2019-01-20T22:47:58.607Z,70.60
2019-01-20T22:50:44.549Z,70.30
2019-01-20T22:53:10.720Z,70.00
2019-01-20T22:55:37.007Z,69.80
2019-01-20T22:58:03.361Z,69.90
2019-01-20T23:00:57.378Z,69.80
2019-01-20T23:03:26.064Z,69.90
2019-01-20T23:05:52.324Z,69.90
2019-01-20T23:08:18.505Z,70.00
2019-01-20T23:10:44.604Z,70.00
2019-01-20T23:13:10.697Z,69.80
2019-01-20T23:15:36.816Z,69.70
2019-01-20T23:18:03.547Z,69.60
2019-01-20T23:20:29.713Z,69.60
2019-01-20T23:22:55.768Z,69.60
2019-01-20T23:25:21.819Z,69.80
2019-01-20T23:27:47.953Z,69.70
2019-01-20T23:30:14.423Z,70.10
2019-01-20T23:32:40.504Z,70.10
2019-01-20T23:35:06.924Z,70.20
2019-01-20T23:37:32.990Z,70.20
2019-01-20T23:39:59.040Z,70.20
2019-01-20T23:42:25.416Z,70.20
2019-01-20T23:44:51.474Z,70.20
2019-01-20T23:47:17.536Z,70.10
2019-01-20T23:49:43.578Z,69.90
2019-01-20T23:52:09.648Z,69.90
2019-01-20T23:54:35.691Z,70.90
2019-01-20T23:57:01.731Z,70.00
2019-01-20T23:59:27.811Z,70.00
